Time;durP1;ratioP1;P1;durP2;ratioP2;P2;SDS_P1;SDS_P2;PMS_P1;PMS_P2;Temp;Humidity;BMP_temperature;BMP_pressure;BME280_temperature;BME280_humidity;BME280_pressure;Samples;Min_cycle;Max_cycle;Signal;HPM_P1;HPM_P2
2022/02/01 00:03:46;;;;;;;11.85;2.00;;;5.10;99.90;;;;;;5024159;28;20046;-80
2022/02/01 00:08:52;;;;;;;0.10;0.10;;;5.10;99.90;;;;;;5013225;28;20030;-80
2022/02/01 00:19:19;;;;;;;2.17;1.25;;;5.00;99.90;;;;;;5013688;28;20029;-80
2022/02/01 00:33:20;;;;;;;0.00;0.00;;;5.10;99.90;;;;;;5024801;28;20067;-80
2022/02/01 00:38:22;;;;;;;0.75;0.52;;;5.10;99.90;;;;;;4994272;28;20430;-80
2022/02/01 00:40:54;;;;;;;0.20;0.20;;;5.10;99.90;;;;;;4996537;28;20025;-80
2022/02/01 00:43:20;;;;;;;0.65;0.65;;;5.10;99.90;;;;;;4998548;28;20093;-80
2022/02/01 00:45:46;;;;;;;1.23;0.70;;;5.10;99.90;;;;;;5013340;28;20026;-83
2022/02/01 00:48:12;;;;;;;1.17;1.08;;;5.10;99.90;;;;;;5013270;28;20477;-80
2022/02/01 00:50:37;;;;;;;0.30;0.30;;;5.10;99.90;;;;;;5013673;28;20029;-83
2022/02/01 00:53:04;;;;;;;0.47;0.47;;;5.10;99.90;;;;;;5012790;28;20026;-80
2022/02/01 00:55:30;;;;;;;0.47;0.13;;;5.10;99.90;;;;;;5012851;28;20033;-80
2022/02/01 00:57:55;;;;;;;0.10;0.10;;;5.10;99.90;;;;;;5013148;28;20111;-83
2022/02/01 01:00:21;;;;;;;0.22;0.15;;;5.00;99.90;;;;;;5014120;28;20018;-80
2022/02/01 01:02:47;;;;;;;0.00;0.00;;;5.10;99.90;;;;;;5013083;28;20037;-81
2022/02/01 01:05:13;;;;;;;0.38;0.30;;;5.10;99.90;;;;;;5012984;28;20022;-80
2022/02/01 01:07:38;;;;;;;0.03;0.03;;;5.10;99.90;;;;;;5020136;28;20021;-81
2022/02/01 01:10:06;;;;;;;0.25;0.25;;;5.10;99.90;;;;;;5002324;28;20027;-83
2022/02/01 01:12:36;;;;;;;20.63;0.98;;;5.10;99.90;;;;;;4998875;28;20473;-84
2022/02/01 01:15:15;;;;;;;0.85;0.68;;;5.10;99.90;;;;;;5013165;28;20022;-80
2022/02/01 01:44:46;;;;;;;2.80;1.25;;;5.10;99.90;;;;;;4996820;28;20096;-80
2022/02/01 01:55:16;;;;;;;1.20;0.93;;;5.10;99.90;;;;;;5016477;28;20481;-80
2022/02/01 01:57:42;;;;;;;0.00;0.00;;;5.00;99.90;;;;;;5016345;28;20104;-80
2022/02/01 02:00:20;;;;;;;0.00;0.00;;;5.00;99.90;;;;;;5027977;28;20029;-80
2022/02/01 02:02:46;;;;;;;1.08;0.32;;;5.00;99.90;;;;;;5015856;28;20374;-80
2022/02/01 02:05:12;;;;;;;3.63;1.25;;;5.00;99.90;;;;;;5015965;28;20030;-80
2022/02/01 02:07:37;;;;;;;0.00;0.00;;;5.00;99.90;;;;;;5014476;28;20527;-84
2022/02/01 02:10:04;;;;;;;0.45;0.30;;;5.00;99.90;;;;;;5029764;28;20057;-80
2022/02/01 02:12:52;;;;;;;0.10;0.10;;;4.90;99.90;;;;;;5016012;28;20014;-80
2022/02/01 02:15:32;;;;;;;0.00;0.00;;;4.90;99.90;;;;;;5015480;28;20026;-80
2022/02/01 02:18:01;;;;;;;0.00;0.00;;;4.90;99.90;;;;;;5015707;28;20088;-83
2022/02/01 02:20:38;;;;;;;0.03;0.03;;;4.90;99.90;;;;;;5019258;28;20022;-80
2022/02/01 02:23:04;;;;;;;0.00;0.00;;;4.90;99.90;;;;;;5015397;28;20112;-80
2022/02/01 02:25:35;;;;;;;0.17;0.17;;;4.90;99.90;;;;;;5015483;28;20157;-83
2022/02/01 02:28:01;;;;;;;0.52;0.43;;;4.90;99.90;;;;;;5021695;28;20044;-82
2022/02/01 02:30:27;;;;;;;0.00;0.00;;;4.80;99.90;;;;;;5021834;28;20061;-80
2022/02/01 02:32:53;;;;;;;0.00;0.00;;;4.80;99.90;;;;;;5015503;28;20026;-80
2022/02/01 02:35:19;;;;;;;0.00;0.00;;;4.80;99.90;;;;;;5015518;28;20113;-80
2022/02/01 02:37:45;;;;;;;13.15;1.20;;;4.80;99.90;;;;;;5016376;28;20030;-80
2022/02/01 02:40:33;;;;;;;0.00;0.00;;;4.80;99.90;;;;;;5016071;28;20028;-83
2022/02/01 02:45:43;;;;;;;0.43;0.28;;;4.70;99.90;;;;;;5015421;28;20073;-83
2022/02/01 02:48:12;;;;;;;0.15;0.15;;;4.60;99.90;;;;;;5015870;28;20025;-80
2022/02/01 02:50:38;;;;;;;0.20;0.20;;;4.60;99.90;;;;;;5002214;28;20028;-83
2022/02/01 02:53:03;;;;;;;0.10;0.10;;;4.50;99.90;;;;;;5000362;28;20093;-83
2022/02/01 02:55:31;;;;;;;3.17;1.90;;;4.50;99.90;;;;;;5014881;28;20018;-83
2022/02/01 02:57:57;;;;;;;0.00;0.00;;;4.50;99.90;;;;;;5016442;28;20120;-80
2022/02/01 03:00:23;;;;;;;0.03;0.03;;;4.40;99.90;;;;;;5013867;28;20060;-80
2022/02/01 03:02:49;;;;;;;0.00;0.00;;;4.30;99.90;;;;;;5015199;28;20026;-83
2022/02/01 03:05:14;;;;;;;0.10;0.10;;;4.30;99.90;;;;;;5015001;28;20053;-83
2022/02/01 03:07:40;;;;;;;0.00;0.00;;;4.20;99.90;;;;;;5017496;28;20075;-83
2022/02/01 03:10:06;;;;;;;0.50;0.50;;;4.20;99.90;;;;;;5014742;28;20029;-81
2022/02/01 03:12:58;;;;;;;0.30;0.30;;;4.20;99.90;;;;;;5014772;28;20025;-80
2022/02/01 03:20:40;;;;;;;0.00;0.00;;;4.10;99.90;;;;;;5014791;28;20076;-83
2022/02/01 03:23:06;;;;;;;0.10;0.10;;;4.10;99.90;;;;;;5014464;28;20026;-81
2022/02/01 03:25:31;;;;;;;1.88;1.10;;;4.10;99.90;;;;;;5017923;28;20077;-80
2022/02/01 03:27:57;;;;;;;0.63;0.63;;;4.10;99.90;;;;;;5006435;28;20035;-80
2022/02/01 03:30:23;;;;;;;0.00;0.00;;;4.20;99.90;;;;;;5013231;28;20497;-80
2022/02/01 03:32:49;;;;;;;0.00;0.00;;;4.30;99.90;;;;;;5014592;28;20030;-80
2022/02/01 03:35:15;;;;;;;0.30;0.22;;;4.30;99.90;;;;;;5017425;28;20083;-80
2022/02/01 03:37:41;;;;;;;0.10;0.10;;;4.40;99.90;;;;;;5015776;28;20440;-83
2022/02/01 03:40:11;;;;;;;0.55;0.55;;;4.40;99.90;;;;;;5014371;28;20497;-83
2022/02/01 03:42:37;;;;;;;0.00;0.00;;;4.40;99.90;;;;;;5014256;28;20504;-80
2022/02/01 03:45:03;;;;;;;0.93;0.22;;;4.40;99.90;;;;;;5015613;28;20026;-81
2022/02/01 03:47:32;;;;;;;1.00;1.00;;;4.40;99.90;;;;;;5018262;28;20116;-83
2022/02/01 03:49:59;;;;;;;0.00;0.00;;;4.40;99.90;;;;;;5007776;28;20105;-80
2022/02/01 03:52:25;;;;;;;0.28;0.10;;;4.40;99.90;;;;;;5013210;28;20465;-80
2022/02/01 03:54:51;;;;;;;0.00;0.00;;;4.40;99.90;;;;;;5014779;28;20044;-83
2022/02/01 03:57:17;;;;;;;0.00;0.00;;;4.40;99.90;;;;;;5014189;28;20045;-83
2022/02/01 03:59:46;;;;;;;0.20;0.20;;;4.40;99.90;;;;;;5013974;28;20030;-81
2022/02/01 04:02:14;;;;;;;3.72;1.55;;;4.40;99.90;;;;;;5013802;28;20034;-83
2022/02/01 04:04:40;;;;;;;0.20;0.20;;;4.40;99.90;;;;;;5025973;28;20014;-80
2022/02/01 04:07:08;;;;;;;0.00;0.00;;;4.50;99.90;;;;;;5013233;28;20034;-80
2022/02/01 04:09:35;;;;;;;0.00;0.00;;;4.50;99.90;;;;;;5013770;28;20120;-80
2022/02/01 04:12:03;;;;;;;0.00;0.00;;;4.60;99.90;;;;;;5013402;28;20754;-80
2022/02/01 04:14:32;;;;;;;5.38;1.85;;;4.70;99.90;;;;;;5019965;28;20088;-80
2022/02/01 04:17:00;;;;;;;1.60;0.60;;;4.70;99.90;;;;;;5013669;28;20034;-81
2022/02/01 04:19:28;;;;;;;0.00;0.00;;;4.70;99.90;;;;;;5013792;28;20029;-83
2022/02/01 04:22:03;;;;;;;0.75;0.75;;;4.80;99.90;;;;;;5017707;28;20078;-81
2022/02/01 04:24:31;;;;;;;10.35;1.88;;;4.80;99.90;;;;;;5014638;28;20034;-80
2022/02/01 04:26:57;;;;;;;1.13;1.08;;;4.80;99.90;;;;;;4996031;28;20474;-80
2022/02/01 04:29:23;;;;;;;0.00;0.00;;;4.80;99.90;;;;;;4992576;28;20023;-83
2022/02/01 04:31:49;;;;;;;0.47;0.47;;;4.80;99.90;;;;;;4999772;28;20023;-83
2022/02/01 04:34:15;;;;;;;0.00;0.00;;;4.80;99.90;;;;;;4998052;28;20033;-84
2022/02/01 04:36:41;;;;;;;0.00;0.00;;;4.90;99.90;;;;;;4993373;28;20035;-80
2022/02/01 04:39:06;;;;;;;0.10;0.10;;;4.90;99.90;;;;;;4993363;28;20149;-80
2022/02/01 04:41:33;;;;;;;0.08;0.08;;;4.90;99.90;;;;;;5012920;28;20045;-83
2022/02/01 04:43:59;;;;;;;2.33;0.80;;;4.90;99.90;;;;;;5013713;28;20388;-81
2022/02/01 04:46:26;;;;;;;3.60;1.60;;;4.90;99.90;;;;;;5012686;28;20022;-83
2022/02/01 04:48:52;;;;;;;0.22;0.22;;;5.00;99.90;;;;;;5013825;28;20105;-81
2022/02/01 04:51:20;;;;;;;0.13;0.13;;;5.00;99.90;;;;;;5027229;28;20066;-84
2022/02/01 04:53:47;;;;;;;0.13;0.13;;;5.10;99.90;;;;;;5012931;28;20021;-83
2022/02/01 04:56:14;;;;;;;1.92;1.17;;;5.10;99.90;;;;;;5011933;28;20033;-80
2022/02/01 04:58:40;;;;;;;8.85;1.48;;;5.20;99.90;;;;;;5013096;28;20124;-84
2022/02/01 05:01:06;;;;;;;0.00;0.00;;;5.20;99.90;;;;;;5010217;28;20446;-83
2022/02/01 05:03:32;;;;;;;0.68;0.68;;;5.20;99.90;;;;;;5004968;28;20104;-81
2022/02/01 05:06:00;;;;;;;0.35;0.35;;;5.10;99.90;;;;;;5013961;28;20477;-80
2022/02/01 05:08:26;;;;;;;0.20;0.20;;;5.10;99.90;;;;;;5021864;28;20020;-83
2022/02/01 05:10:52;;;;;;;7.90;1.00;;;5.00;99.90;;;;;;5020395;28;20029;-81
2022/02/01 05:15:50;;;;;;;0.65;0.40;;;5.10;99.90;;;;;;5016628;28;20105;-82
2022/02/01 05:18:23;;;;;;;0.00;0.00;;;5.00;99.90;;;;;;5016641;28;20026;-80
2022/02/01 05:20:57;;;;;;;0.00;0.00;;;5.00;99.90;;;;;;5000697;28;20057;-82
2022/02/01 05:23:24;;;;;;;0.00;0.00;;;5.00;99.90;;;;;;5000102;28;20018;-80
2022/02/01 05:25:51;;;;;;;0.55;0.47;;;4.90;99.90;;;;;;5004089;28;20042;-81
2022/02/01 05:28:17;;;;;;;0.65;0.65;;;4.90;99.90;;;;;;5017229;28;20428;-81
2022/02/01 05:30:43;;;;;;;0.00;0.00;;;4.90;99.90;;;;;;5017921;28;20508;-83
2022/02/01 05:33:09;;;;;;;0.52;0.52;;;5.00;99.90;;;;;;5014980;28;20030;-81
2022/02/01 05:35:38;;;;;;;0.52;0.52;;;5.20;99.90;;;;;;5016731;28;20049;-83
2022/02/01 05:38:03;;;;;;;0.20;0.20;;;5.30;99.90;;;;;;5022943;28;20010;-83
2022/02/01 05:40:29;;;;;;;0.22;0.22;;;5.40;99.90;;;;;;5027676;28;20041;-80
2022/02/01 05:43:05;;;;;;;0.65;0.65;;;5.50;99.90;;;;;;5016444;28;20057;-83
2022/02/01 05:45:33;;;;;;;0.73;0.40;;;5.50;99.90;;;;;;5016450;28;20018;-80
2022/02/01 05:48:01;;;;;;;0.00;0.00;;;5.70;99.90;;;;;;4999995;28;20830;-80
2022/02/01 05:50:27;;;;;;;0.00;0.00;;;5.70;99.90;;;;;;5016154;28;20492;-80
2022/02/01 05:52:53;;;;;;;0.00;0.00;;;5.80;99.90;;;;;;5015574;28;20050;-81
2022/02/01 05:55:18;;;;;;;0.10;0.10;;;5.80;99.90;;;;;;5014982;28;20038;-81
2022/02/01 05:57:44;;;;;;;0.38;0.38;;;5.90;99.90;;;;;;5014328;28;20041;-82
2022/02/01 06:00:10;;;;;;;1.10;0.85;;;6.00;99.90;;;;;;5025294;28;20728;-79
2022/02/01 06:02:36;;;;;;;0.00;0.00;;;6.00;99.90;;;;;;5002251;28;20138;-82
2022/02/01 06:05:01;;;;;;;0.05;0.05;;;6.10;99.90;;;;;;4994980;28;20116;-82
2022/02/01 06:07:27;;;;;;;0.22;0.22;;;6.10;99.90;;;;;;4998486;28;20029;-82
2022/02/01 06:09:52;;;;;;;0.00;0.00;;;6.10;99.90;;;;;;5009744;28;20101;-82
2022/02/01 06:12:18;;;;;;;0.10;0.10;;;6.10;99.90;;;;;;5021281;28;20080;-81
2022/02/01 06:14:44;;;;;;;0.08;0.08;;;6.10;99.90;;;;;;5015882;28;20041;-84
2022/02/01 06:17:09;;;;;;;0.93;0.57;;;6.10;99.90;;;;;;5015022;28;20025;-81
2022/02/01 06:19:35;;;;;;;1.25;0.52;;;6.10;99.90;;;;;;5014583;28;20819;-79
2022/02/01 06:22:02;;;;;;;0.35;0.35;;;6.10;99.90;;;;;;5017676;28;20025;-80
2022/02/01 06:24:28;;;;;;;0.00;0.00;;;6.10;99.90;;;;;;5014650;28;20448;-82
2022/02/01 06:26:54;;;;;;;0.00;0.00;;;6.10;99.90;;;;;;5015521;28;20022;-81
2022/02/01 06:29:20;;;;;;;0.25;0.25;;;6.10;99.90;;;;;;5015199;28;20072;-79
2022/02/01 06:31:46;;;;;;;1.50;1.23;;;6.20;99.90;;;;;;5016713;28;20113;-79
2022/02/01 06:34:11;;;;;;;0.95;0.57;;;6.20;99.90;;;;;;5012573;28;20032;-81
2022/02/01 06:36:37;;;;;;;0.30;0.30;;;6.20;99.90;;;;;;4997789;28;20026;-80
2022/02/01 06:39:07;;;;;;;0.20;0.20;;;6.30;99.90;;;;;;5005438;28;20507;-80
2022/02/01 06:41:32;;;;;;;28.42;0.75;;;6.40;99.90;;;;;;5015301;28;20105;-80
2022/02/01 06:43:58;;;;;;;2.13;1.50;;;6.50;99.90;;;;;;5016867;28;20115;-80
2022/02/01 06:46:24;;;;;;;3.55;1.48;;;6.50;99.90;;;;;;5009816;28;20018;-85
2022/02/01 06:48:49;;;;;;;32.33;1.45;;;6.60;99.90;;;;;;4995947;28;20034;-85
2022/02/01 06:51:18;;;;;;;5.97;1.02;;;6.60;99.90;;;;;;5015126;28;20029;-80
2022/02/01 06:53:45;;;;;;;0.10;0.10;;;6.70;99.90;;;;;;5017994;28;20118;-80
2022/02/01 06:56:28;;;;;;;0.03;0.03;;;6.80;99.90;;;;;;5024957;28;20031;-80
2022/02/01 06:58:57;;;;;;;0.03;0.03;;;6.90;99.90;;;;;;5001219;28;20390;-85
2022/02/01 07:01:26;;;;;;;0.00;0.00;;;7.10;99.90;;;;;;5012820;28;20113;-82
2022/02/01 07:03:51;;;;;;;0.10;0.10;;;7.20;99.90;;;;;;5012601;28;20026;-85
2022/02/01 07:06:18;;;;;;;0.40;0.30;;;7.30;99.90;;;;;;5014310;28;20014;-81
2022/02/01 07:08:46;;;;;;;0.20;0.20;;;7.30;99.90;;;;;;5013835;28;20566;-85
2022/02/01 07:11:12;;;;;;;2.28;0.40;;;7.30;99.90;;;;;;5007575;28;20126;-81
2022/02/01 07:13:38;;;;;;;0.35;0.35;;;7.40;99.90;;;;;;5011420;28;20461;-81
2022/02/01 07:16:05;;;;;;;0.00;0.00;;;7.40;99.90;;;;;;5005707;28;20501;-81
2022/02/01 07:18:31;;;;;;;0.00;0.00;;;7.40;99.90;;;;;;5011170;28;20092;-81
2022/02/01 07:20:57;;;;;;;0.00;0.00;;;7.40;99.90;;;;;;5010292;28;20090;-85
2022/02/01 07:23:25;;;;;;;0.00;0.00;;;7.50;99.90;;;;;;4993527;28;20065;-81
2022/02/01 07:25:52;;;;;;;0.03;0.03;;;7.50;99.90;;;;;;4994356;28;20121;-85
2022/02/01 07:28:19;;;;;;;0.00;0.00;;;7.50;99.90;;;;;;5008230;28;20030;-86
2022/02/01 07:30:46;;;;;;;0.00;0.00;;;7.50;99.90;;;;;;5015184;28;20037;-83
2022/02/01 07:33:12;;;;;;;2.35;1.45;;;7.50;99.90;;;;;;5011064;28;20033;-80
2022/02/01 07:35:40;;;;;;;0.52;0.38;;;7.60;99.90;;;;;;5000488;28;20022;-80
2022/02/01 07:38:08;;;;;;;0.10;0.10;;;7.60;99.90;;;;;;5002095;28;20026;-82
2022/02/01 07:40:35;;;;;;;0.20;0.20;;;7.80;99.90;;;;;;5007540;28;20084;-82
2022/02/01 07:43:01;;;;;;;0.20;0.20;;;7.80;99.90;;;;;;4995006;28;20481;-82
2022/02/01 07:45:31;;;;;;;1.75;0.75;;;7.90;99.90;;;;;;4994447;28;20022;-82
2022/02/01 07:47:59;;;;;;;0.00;0.00;;;8.00;99.90;;;;;;4993311;28;20030;-83
2022/02/01 07:50:26;;;;;;;0.80;0.45;;;8.00;99.90;;;;;;5004756;28;20047;-83
2022/02/01 07:52:52;;;;;;;1.92;0.70;;;8.10;99.90;;;;;;5011074;28;20436;-84
2022/02/01 07:55:18;;;;;;;0.43;0.43;;;8.20;99.90;;;;;;5003021;28;20340;-81
2022/02/01 07:57:44;;;;;;;1.65;1.45;;;8.20;99.90;;;;;;5011290;28;20064;-82
2022/02/01 08:00:10;;;;;;;6.82;2.58;;;8.30;99.90;;;;;;5006697;28;20034;-82
2022/02/01 08:02:36;;;;;;;2.25;1.05;;;8.30;99.90;;;;;;4992899;28;20424;-79
2022/02/01 08:05:03;;;;;;;6.32;1.88;;;8.30;99.90;;;;;;5003225;28;20093;-79
2022/02/01 08:07:30;;;;;;;0.10;0.10;;;8.30;99.90;;;;;;5000201;28;20117;-84
2022/02/01 08:09:59;;;;;;;0.05;0.05;;;8.30;99.90;;;;;;4997879;28;20037;-78
2022/02/01 08:18:00;;;;;;;0.32;0.32;;;8.50;99.90;;;;;;5002525;28;20613;-80
2022/02/01 08:20:33;;;;;;;1.90;1.75;;;8.50;99.90;;;;;;5012223;28;20493;-81
2022/02/01 08:25:25;;;;;;;2.05;1.25;;;8.70;99.90;;;;;;5006644;28;20022;-82
2022/02/01 08:27:54;;;;;;;0.20;0.20;;;8.70;99.90;;;;;;5011061;28;20050;-80
2022/02/01 08:30:19;;;;;;;2.20;0.75;;;8.80;99.90;;;;;;5011085;28;20021;-81
2022/02/01 08:32:45;;;;;;;2.20;1.10;;;8.80;99.90;;;;;;5009025;28;20460;-80
2022/02/01 08:35:11;;;;;;;1.75;0.95;;;8.90;99.90;;;;;;4997766;28;20428;-81
2022/02/01 08:37:36;;;;;;;0.63;0.50;;;8.90;99.90;;;;;;5011679;28;20048;-82
2022/02/01 08:40:03;;;;;;;3.83;1.90;;;9.00;99.90;;;;;;5010825;28;20080;-79
2022/02/01 08:42:30;;;;;;;0.00;0.00;;;9.10;99.90;;;;;;5011646;28;20030;-80
2022/02/01 08:44:56;;;;;;;0.25;0.25;;;9.10;99.90;;;;;;5010790;28;20032;-83
2022/02/01 08:47:22;;;;;;;0.30;0.30;;;9.10;99.90;;;;;;5008760;28;20382;-77
2022/02/01 08:49:47;;;;;;;1.38;0.52;;;9.10;99.90;;;;;;5010850;28;20029;-78
2022/02/01 08:52:23;;;;;;;0.45;0.45;;;9.20;99.90;;;;;;5011226;28;20037;-78
2022/02/01 08:54:51;;;;;;;0.88;0.45;;;9.20;99.90;;;;;;5007050;28;20780;-77
2022/02/01 08:57:21;;;;;;;0.20;0.20;;;9.20;99.90;;;;;;5003317;28;20058;-77
2022/02/01 08:59:55;;;;;;;0.00;0.00;;;9.10;99.90;;;;;;5008547;28;20038;-78
2022/02/01 09:02:26;;;;;;;0.08;0.08;;;9.20;99.90;;;;;;5010444;28;20038;-77
2022/02/01 09:04:52;;;;;;;0.40;0.40;;;9.20;99.90;;;;;;5011105;28;20030;-76
2022/02/01 09:07:18;;;;;;;0.80;0.43;;;9.30;99.90;;;;;;5010678;28;20117;-77
2022/02/01 09:09:44;;;;;;;0.10;0.10;;;9.30;99.90;;;;;;5006753;28;20101;-78
2022/02/01 09:12:10;;;;;;;0.98;0.90;;;9.40;99.90;;;;;;5004247;28;20045;-78
2022/02/01 09:14:36;;;;;;;1.77;1.00;;;9.40;99.90;;;;;;5006147;28;20410;-79
2022/02/01 09:17:03;;;;;;;1.45;0.85;;;9.40;99.90;;;;;;5005358;28;20026;-78
2022/02/01 09:19:32;;;;;;;0.63;0.50;;;9.50;99.90;;;;;;5009234;28;20585;-79
2022/02/01 09:21:59;;;;;;;1.88;0.50;;;9.50;99.90;;;;;;5008608;28;20456;-78
2022/02/01 09:24:25;;;;;;;0.10;0.10;;;9.70;99.90;;;;;;5006463;28;20107;-77
2022/02/01 09:26:51;;;;;;;0.20;0.20;;;9.80;99.90;;;;;;5010758;28;20065;-76
2022/02/01 09:29:19;;;;;;;0.30;0.30;;;9.70;99.90;;;;;;5009667;28;20041;-75
2022/02/01 09:31:45;;;;;;;0.10;0.10;;;9.70;99.90;;;;;;5010796;28;20034;-77
2022/02/01 09:34:10;;;;;;;1.35;1.25;;;9.70;99.90;;;;;;5000594;28;20030;-78
2022/02/01 09:36:36;;;;;;;1.25;1.15;;;9.70;99.90;;;;;;5009112;28;20029;-78
2022/02/01 09:39:05;;;;;;;5.72;1.67;;;9.70;99.90;;;;;;5011021;28;20025;-80
2022/02/01 09:41:33;;;;;;;0.10;0.10;;;9.70;99.90;;;;;;5033852;28;20072;-77
2022/02/01 09:43:59;;;;;;;0.20;0.20;;;9.70;99.90;;;;;;5011136;28;20037;-78
2022/02/01 09:46:25;;;;;;;0.38;0.38;;;9.60;99.90;;;;;;5011232;28;20084;-80
2022/02/01 09:48:51;;;;;;;0.17;0.08;;;9.70;99.90;;;;;;5010771;28;20022;-79
2022/02/01 09:51:20;;;;;;;0.20;0.20;;;9.70;99.90;;;;;;5007658;28;20121;-78
2022/02/01 09:53:45;;;;;;;0.00;0.00;;;9.70;99.90;;;;;;5003205;28;20485;-80
2022/02/01 09:56:11;;;;;;;3.60;1.08;;;9.70;99.90;;;;;;5011140;28;20041;-79
2022/02/01 09:58:40;;;;;;;1.15;1.05;;;9.80;99.90;;;;;;5013868;28;20050;-80
2022/02/01 10:01:25;;;;;;;2.05;0.93;;;9.90;99.90;;;;;;5012527;28;20018;-79
2022/02/01 10:04:02;;;;;;;1.17;1.15;;;10.00;99.90;;;;;;5012740;28;20025;-83
2022/02/01 10:06:32;;;;;;;0.00;0.00;;;10.10;99.90;;;;;;5005153;28;20100;-80
2022/02/01 10:09:12;;;;;;;0.00;0.00;;;10.20;99.90;;;;;;5005853;28;20488;-80
2022/02/01 10:11:41;;;;;;;0.00;0.00;;;10.30;99.90;;;;;;5013073;28;20026;-80
2022/02/01 10:14:11;;;;;;;0.20;0.20;;;10.30;99.90;;;;;;5012443;28;20026;-80
2022/02/01 10:16:47;;;;;;;0.00;0.00;;;10.30;99.90;;;;;;5004013;28;20037;-80
2022/02/01 10:19:13;;;;;;;0.10;0.10;;;10.30;99.90;;;;;;5003678;28;20024;-80
2022/02/01 10:21:56;;;;;;;0.90;0.90;;;10.40;99.90;;;;;;5010021;28;20037;-80
2022/02/01 10:24:31;;;;;;;;;;;10.50;99.90;;;;;;5014650;28;20029;-78
2022/02/01 10:27:17;;;;;;;0.00;0.00;;;10.50;99.90;;;;;;5005160;28;19913;-80
2022/02/01 10:33:08;;;;;;;2.75;1.45;;;10.70;99.90;;;;;;5014341;28;20037;-79
2022/02/01 10:35:26;;;;;;;0.45;0.22;;;10.70;99.90;;;;;;5013728;28;20041;-81
2022/02/01 10:38:06;;;;;;;0.20;0.20;;;10.80;99.90;;;;;;5008177;28;20025;-81
2022/02/01 10:40:41;;;;;;;2.72;0.82;;;10.80;99.90;;;;;;5013991;28;20054;-82
2022/02/01 10:43:21;;;;;;;0.22;0.22;;;10.80;99.90;;;;;;5017872;28;20022;-79
2022/02/01 10:45:47;;;;;;;0.00;0.00;;;11.00;99.90;;;;;;5030270;28;20114;-83
2022/02/01 10:48:22;;;;;;;1.10;1.00;;;11.00;99.90;;;;;;5007537;28;20030;-84
2022/02/01 10:51:08;;;;;;;0.00;0.00;;;11.10;99.90;;;;;;5008448;28;20033;-84
2022/02/01 10:53:37;;;;;;;1.15;0.93;;;11.10;99.90;;;;;;5003477;28;20427;-79
2022/02/01 10:56:05;;;;;;;0.17;0.17;;;11.10;99.90;;;;;;5002803;28;20069;-85
2022/02/01 10:58:32;;;;;;;0.45;0.32;;;11.10;99.90;;;;;;5012609;28;20095;-76
2022/02/01 11:00:58;;;;;;;0.03;0.03;;;11.50;99.90;;;;;;5010293;28;20049;-79
2022/02/01 11:03:24;;;;;;;3.20;1.35;;;12.00;99.90;;;;;;5012731;28;20025;-84
2022/02/01 11:05:52;;;;;;;2.05;0.90;;;12.30;99.90;;;;;;5008554;28;20027;-82
2022/02/01 11:08:26;;;;;;;0.75;0.75;;;12.20;99.90;;;;;;5003569;28;20071;-84
2022/02/01 11:29:39;;;;;;;0.60;0.52;;;11.40;99.90;;;;;;5035790;28;20037;-80
2022/02/01 11:32:03;;;;;;;1.27;1.17;;;11.40;99.90;;;;;;5050308;28;20045;-77
2022/02/01 11:34:34;;;;;;;0.00;0.00;;;11.30;99.90;;;;;;5050549;28;20027;-74
2022/02/01 11:37:10;;;;;;;0.00;0.00;;;11.40;99.90;;;;;;5053160;28;20535;-83
2022/02/01 11:39:49;;;;;;;1.88;1.00;;;11.70;99.90;;;;;;5047326;28;20025;-82
2022/02/01 11:42:16;;;;;;;2.17;1.02;;;11.80;99.90;;;;;;5049221;28;20059;-71
2022/02/01 11:44:42;;;;;;;0.00;0.00;;;11.70;99.90;;;;;;5064733;28;20031;-81
2022/02/01 11:47:20;;;;;;;2.92;2.17;;;11.50;99.90;;;;;;5044695;28;20025;-79
2022/02/01 11:49:49;;;;;;;0.43;0.43;;;11.70;99.90;;;;;;5042211;28;20408;-81
2022/02/01 11:52:16;;;;;;;0.28;0.28;;;11.60;99.90;;;;;;5051782;28;20020;-82
2022/02/01 11:54:47;;;;;;;0.00;0.00;;;11.70;99.90;;;;;;5067031;28;20033;-72
2022/02/01 11:57:24;;;;;;;2.28;0.73;;;11.60;99.90;;;;;;5065308;28;20033;-71
2022/02/01 12:00:14;;;;;;;0.85;0.47;;;11.60;99.90;;;;;;5048959;28;20071;-84
2022/02/01 12:02:53;;;;;;;0.00;0.00;;;11.60;99.90;;;;;;5055469;28;20179;-80
2022/02/01 12:05:37;;;;;;;8.10;2.75;;;11.80;99.90;;;;;;5045921;28;20040;-71
2022/02/01 12:08:15;;;;;;;0.00;0.00;;;11.90;99.90;;;;;;5048506;28;20021;-72
2022/02/01 12:10:43;;;;;;;0.35;0.35;;;12.00;99.90;;;;;;5047723;28;20037;-84
2022/02/01 12:13:12;;;;;;;0.20;0.10;;;11.80;99.90;;;;;;5049246;28;20029;-82
2022/02/01 12:15:39;;;;;;;1.02;0.70;;;11.70;99.90;;;;;;5037743;28;20127;-72
2022/02/01 12:18:08;;;;;;;1.38;0.25;;;11.90;99.90;;;;;;5043877;28;20040;-81
2022/02/01 12:20:38;;;;;;;0.17;0.17;;;12.10;99.90;;;;;;5046301;28;20021;-78
2022/02/01 12:23:24;;;;;;;0.00;0.00;;;12.10;99.90;;;;;;5049905;28;20090;-81
2022/02/01 12:25:53;;;;;;;1.73;0.98;;;11.90;99.90;;;;;;5044599;28;20120;-82
2022/02/01 12:28:28;;;;;;;7.78;0.28;;;11.70;99.90;;;;;;5045841;28;20028;-83
2022/02/01 12:31:07;;;;;;;1.75;1.42;;;11.70;99.90;;;;;;5046385;28;20030;-72
2022/02/01 12:33:33;;;;;;;14.05;2.13;;;11.60;99.90;;;;;;5064368;28;20021;-72
2022/02/01 12:35:58;;;;;;;0.60;0.57;;;11.60;99.90;;;;;;5063895;28;20507;-72
2022/02/01 12:38:28;;;;;;;0.10;0.10;;;11.50;99.90;;;;;;5034595;28;20033;-83
2022/02/01 12:41:02;;;;;;;0.45;0.45;;;11.50;99.90;;;;;;5033996;28;20037;-83
2022/02/01 12:43:31;;;;;;;4.05;2.30;;;11.50;99.90;;;;;;5034915;28;20044;-72
2022/02/01 12:46:06;;;;;;;0.20;0.20;;;11.40;99.90;;;;;;5033474;28;20029;-72
2022/02/01 12:48:32;;;;;;;0.90;0.73;;;11.40;99.90;;;;;;5030824;28;20523;-83
2022/02/01 12:51:04;;;;;;;3.72;0.77;;;11.40;99.90;;;;;;5024805;28;20096;-83
2022/02/01 12:53:42;;;;;;;0.15;0.15;;;11.50;99.90;;;;;;5020792;28;20021;-82
2022/02/01 12:56:17;;;;;;;0.70;0.70;;;11.50;99.90;;;;;;5029236;28;20033;-83
2022/02/01 12:58:43;;;;;;;0.08;0.03;;;11.50;99.90;;;;;;5035113;28;20041;-71
2022/02/01 13:01:08;;;;;;;0.00;0.00;;;11.40;99.90;;;;;;5043141;28;20068;-81
2022/02/01 13:03:44;;;;;;;9.55;0.52;;;11.30;99.90;;;;;;5032199;28;20030;-83
2022/02/01 13:06:12;;;;;;;0.17;0.17;;;11.20;99.90;;;;;;5021965;28;20036;-84
2022/02/01 13:12:53;;;;;;;3.20;1.30;;;11.20;99.90;;;;;;5027729;28;20048;-82
2022/02/01 13:16:47;;;;;;;0.00;0.00;;;11.30;99.90;;;;;;5022841;28;20489;-71
2022/02/01 13:22:07;;;;;;;0.00;0.00;;;11.30;99.90;;;;;;5033827;28;20516;-72
2022/02/01 13:24:33;;;;;;;1.35;1.20;;;11.30;99.90;;;;;;5033314;28;20132;-81
2022/02/01 13:26:58;;;;;;;0.00;0.00;;;11.40;99.90;;;;;;5036762;28;20100;-72
2022/02/01 13:29:24;;;;;;;1.65;0.52;;;11.40;99.90;;;;;;5035740;28;20113;-80
2022/02/01 13:31:51;;;;;;;0.00;0.00;;;11.30;99.90;;;;;;5032447;28;20473;-80
2022/02/01 13:34:28;;;;;;;0.00;0.00;;;11.20;99.90;;;;;;5032708;28;20480;-70
2022/02/01 13:36:56;;;;;;;0.00;0.00;;;11.30;99.90;;;;;;5031406;28;20503;-70
2022/02/01 13:39:38;;;;;;;0.80;0.65;;;11.30;99.90;;;;;;5030580;28;20036;-76
2022/02/01 13:42:07;;;;;;;0.10;0.10;;;11.20;99.90;;;;;;5031047;28;20029;-82
2022/02/01 13:44:33;;;;;;;0.20;0.20;;;11.10;99.90;;;;;;5026192;28;20072;-84
2022/02/01 13:47:06;;;;;;;0.00;0.00;;;11.10;99.90;;;;;;5030380;28;20150;-83
2022/02/01 13:49:32;;;;;;;0.00;0.00;;;11.00;99.90;;;;;;5031185;28;20026;-82
2022/02/01 13:51:58;;;;;;;0.50;0.17;;;11.10;99.90;;;;;;5031700;28;20033;-83
2022/02/01 13:54:25;;;;;;;1.65;0.63;;;11.00;99.90;;;;;;5031278;28;20045;-73
2022/02/01 13:56:53;;;;;;;0.40;0.30;;;11.00;99.90;;;;;;5032133;28;20378;-73
2022/02/01 13:59:24;;;;;;;0.00;0.00;;;11.00;99.90;;;;;;5032831;28;20022;-72
2022/02/01 14:02:01;;;;;;;0.10;0.10;;;11.00;99.90;;;;;;5051864;28;20028;-78
2022/02/01 14:04:32;;;;;;;18.52;0.65;;;11.00;99.90;;;;;;5037803;28;20033;-72
2022/02/01 14:07:33;;;;;;;0.52;0.52;;;11.10;99.90;;;;;;5031744;28;20480;-73
2022/02/01 14:29:08;;;;;;;0.68;0.68;;;10.90;99.90;;;;;;5030846;28;20075;-73
2022/02/01 14:32:05;;;;;;;0.25;0.25;;;10.80;99.90;;;;;;5030866;28;20085;-72
2022/02/01 14:34:30;;;;;;;0.80;0.80;;;10.80;99.90;;;;;;5031016;28;20037;-81
2022/02/01 14:37:00;;;;;;;0.40;0.40;;;10.70;99.90;;;;;;5031172;28;20028;-78
2022/02/01 14:44:55;;;;;;;0.00;0.00;;;10.60;99.90;;;;;;5009069;28;20276;-72
2022/02/01 14:47:22;;;;;;;0.17;0.17;;;10.60;99.90;;;;;;5022726;28;20044;-80
2022/02/01 14:49:50;;;;;;;0.28;0.25;;;10.50;99.90;;;;;;5028549;28;20435;-73
2022/02/01 14:52:17;;;;;;;0.13;0.13;;;10.50;99.90;;;;;;5029923;28;20029;-72
2022/02/01 14:54:46;;;;;;;0.13;0.13;;;10.40;99.90;;;;;;5029338;28;20033;-73
2022/02/01 15:13:16;;;;;;;0.30;0.30;;;10.50;99.90;;;;;;5031919;28;20040;-72
2022/02/01 15:15:42;;;;;;;10.02;2.20;;;10.60;99.90;;;;;;5028742;28;20112;-79
2022/02/01 15:18:07;;;;;;;0.43;0.40;;;10.50;99.90;;;;;;5030040;28;20033;-72
2022/02/01 15:20:35;;;;;;;0.85;0.85;;;10.50;99.90;;;;;;5027527;28;20040;-80
2022/02/01 15:23:01;;;;;;;0.85;0.85;;;10.50;99.90;;;;;;5026187;28;20033;-79
2022/02/01 15:25:26;;;;;;;0.88;0.47;;;10.50;99.90;;;;;;5028620;28;20103;-72
2022/02/01 15:27:52;;;;;;;2.92;1.27;;;10.40;99.90;;;;;;5029260;28;20480;-81
2022/02/01 15:30:17;;;;;;;7.45;0.50;;;10.40;99.90;;;;;;5020766;28;20022;-80
2022/02/01 15:32:43;;;;;;;7.32;2.08;;;10.40;99.90;;;;;;5027447;28;20501;-73